Nora, Nebraska
Current Conditions -  °F | °C
As of 7:15 PM on Thursday 27 Nov 2014 (Local Time) from KHJH Reporting Station
Clear Clear  
Wind Chill: 23°   Ceiling: Unl
Heat Index: 31°   Visibility: 10mi
Dew Point: 15°   Wind: 8mph
Humidity: 53%   Direction: 140°SE
Pressure: 30.17"   Gusts: NA
Location:  40.2199°N, 98.0479°W
Report Text: KHJH 280115Z AUTO 14007KT 10SM CLR M01/M09 A3017 RMK AO2 T10071093
Loading
Personal Weather Stations






























Interactive Weather Map New forecast layout! Learn more

10-Day Weather Forecast

Advertisements
Track Severe Weather on mobile